Aérodrome :
LOGIN :

S'inscrire | Disclaimer

   EN    FR    IT 

 










Légende :    VFR   VFR Marginal   IFR   IFR Intensif   IFR Très Intensif
Visi : 
Plafond : 
>= 8 km
>= 3000ft
5 à 8 km
1000 à 3000 ft
1500m à 5 km
500 à 1000 ft
800 à 1500m
200 à 500 ft
< 800m
< 200 ft
Symboles :   Orages  Brouillard  Fortes neiges  Fortes précipitations  Vent > 20 kt
SIGMETs :   Divers  Orages  Givrage  Turbulence  Onde Orograph.  Cendres Volcan.







- Altitude de l'aérodrome : 74 ft
- Code IATA : MRS
- Voir les cartes d'approche


LFML - Marseille / Marignane

DERNIER METAR :
  • 211500Z AUTO 29015KT CAVOK 31/14 Q1010 TEMPO 27015G25KT

METARs EXPIRÉS :
  • 211430Z AUTO 28016KT CAVOK 31/14 Q1010 TEMPO 27015G25KT
  • 211400Z AUTO 27015KT CAVOK 30/15 Q1010 TEMPO 27015G25KT
  • 211330Z AUTO 28015KT CAVOK 30/14 Q1010 TEMPO 27015G25KT
  • 211300Z AUTO 29014KT 9999 FEW008 31/16 Q1011 TEMPO 27015G25KT
  • 211230Z AUTO 30011KT CAVOK 30/15 Q1011 TEMPO 27015G25KT

TAF TAF LFML
Valide du 21 à 15h jusqu'au 22 à 21h UTC


211400Z 2115/2221 30012KT CAVOK TX30/2213Z TN23/2204Z
TEMPO 2115/2120 27015G25KT
TEMPO 2214/2221 26018G28KT
ATIS : +33 4 42 31 15 15
Pas de NOTAMs connus pour ce terrain.



MET'MAP, la Météo Aéronautique d'un coup d'oeil ! - Copyright ORBIFLY Décembre 2007 - Disclaimer

ORBIFLY MET'MAP TEAM :

Programmation & Développement : Alexandra Zaïnal
Conception & Développement : Baudouin d'Aumeries
Co-Programmation & Développement : Marc-Olivier Méhu
Soutien technique & logistique : Manuel Goepfert

Contact : metmap@orbifly.com




SOURCES & CREDITS :

   NOAA